createdAt,value
2019-03-24T00:00:02.198Z,44.03
2019-03-24T00:02:32.857Z,44.27
2019-03-24T00:05:03.244Z,44.73
2019-03-24T00:07:33.663Z,46.92
2019-03-24T00:10:04.224Z,46.37
2019-03-24T00:12:34.903Z,45.43
2019-03-24T00:15:06.931Z,43.48
2019-03-24T00:17:37.855Z,46.02
2019-03-24T00:20:10.423Z,43.80
2019-03-24T00:22:42.793Z,46.30
2019-03-24T00:25:13.345Z,47.10
2019-03-24T00:27:44.501Z,43.30
2019-03-24T00:30:15.259Z,44.95
2019-03-24T00:32:46.852Z,45.98
2019-03-24T00:35:17.520Z,44.38
2019-03-24T00:37:52.098Z,43.25
2019-03-24T00:40:22.479Z,44.93
2019-03-24T00:42:53.870Z,44.15
2019-03-24T00:45:24.662Z,41.55
2019-03-24T00:47:55.336Z,41.18
2019-03-24T00:50:25.731Z,40.67
2019-03-24T00:52:56.289Z,40.40
2019-03-24T00:55:27.183Z,45.43
2019-03-24T00:57:59.830Z,43.02
2019-03-24T01:00:50.951Z,41.20
2019-03-24T01:09:50.802Z,37.55
2019-03-24T01:12:27.164Z,36.70
2019-03-24T01:14:58.007Z,38.53
2019-03-24T01:17:28.802Z,37.55
2019-03-24T01:19:59.248Z,36.83
2019-03-24T01:22:30.197Z,35.55
2019-03-24T01:25:00.920Z,37.15
2019-03-24T01:27:31.562Z,39.78
2019-03-24T01:30:02.369Z,39.60
2019-03-24T01:32:33.711Z,40.63
2019-03-24T01:35:04.346Z,37.58
2019-03-24T01:37:36.935Z,39.98
2019-03-24T01:40:09.141Z,38.30
2019-03-24T01:42:39.863Z,38.53
2019-03-24T01:45:12.211Z,38.20
2019-03-24T01:47:42.599Z,36.88
2019-03-24T01:50:12.979Z,37.98
2019-03-24T01:52:43.524Z,36.15
2019-03-24T01:55:15.181Z,36.33
2019-03-24T01:57:45.853Z,36.80
2019-03-24T02:00:17.418Z,35.48
2019-03-24T02:02:48.082Z,36.53
2019-03-24T02:05:19.079Z,35.70
2019-03-24T02:07:49.741Z,35.17
2019-03-24T02:10:20.475Z,37.40
2019-03-24T02:12:51.363Z,38.98
2019-03-24T02:15:22.048Z,35.90
2019-03-24T02:17:52.750Z,35.73
2019-03-24T02:20:24.231Z,35.15
2019-03-24T02:22:55.054Z,35.00
2019-03-24T02:25:25.721Z,37.50
2019-03-24T02:27:56.546Z,35.70
2019-03-24T02:30:28.839Z,35.38
2019-03-24T02:32:59.531Z,35.10
2019-03-24T02:38:21.730Z,33.05
2019-03-24T02:40:53.038Z,33.58
2019-03-24T02:43:25.500Z,33.75
2019-03-24T02:45:56.171Z,33.40
2019-03-24T02:48:27.142Z,33.35
2019-03-24T02:50:57.809Z,33.63
2019-03-24T02:53:28.551Z,34.20
2019-03-24T02:55:59.374Z,32.60
2019-03-24T02:58:30.110Z,33.75
2019-03-24T03:01:01.246Z,32.23
2019-03-24T03:03:33.434Z,34.45
2019-03-24T03:06:04.160Z,32.93
2019-03-24T03:08:35.131Z,35.85
2019-03-24T03:11:06.834Z,33.35
2019-03-24T03:13:38.996Z,32.93
2019-03-24T03:16:10.578Z,33.02
2019-03-24T03:18:41.493Z,34.75
2019-03-24T03:21:12.266Z,34.08
2019-03-24T03:23:43.001Z,32.28
2019-03-24T03:26:13.885Z,33.85
2019-03-24T03:28:44.558Z,31.37
2019-03-24T03:31:15.295Z,30.45
2019-03-24T03:33:46.283Z,32.20
2019-03-24T03:36:16.956Z,30.70
2019-03-24T03:38:47.756Z,31.30
2019-03-24T03:41:18.958Z,33.00
2019-03-24T03:43:50.862Z,32.65
2019-03-24T03:46:21.260Z,33.15
2019-03-24T03:48:52.622Z,35.03
2019-03-24T03:51:23.311Z,33.85
2019-03-24T03:53:54.021Z,32.45
2019-03-24T03:56:24.963Z,36.05
2019-03-24T03:58:55.789Z,31.80
2019-03-24T04:01:26.524Z,31.25
2019-03-24T04:03:57.706Z,30.92
2019-03-24T04:06:28.370Z,33.08
2019-03-24T04:08:59.772Z,31.23
2019-03-24T04:11:30.595Z,31.85
2019-03-24T04:14:01.259Z,31.12
2019-03-24T04:16:31.992Z,32.90
2019-03-24T04:19:02.874Z,30.88
2019-03-24T04:21:33.547Z,32.17
2019-03-24T04:24:04.271Z,31.70
2019-03-24T04:26:35.153Z,33.08
2019-03-24T04:29:05.826Z,33.10
2019-03-24T04:31:36.557Z,33.33
2019-03-24T04:34:09.611Z,31.87
2019-03-24T04:36:40.387Z,33.13
2019-03-24T04:39:11.127Z,33.90
2019-03-24T04:41:41.914Z,34.75
2019-03-24T04:44:12.886Z,33.58
2019-03-24T04:46:44.208Z,34.23
2019-03-24T04:49:15.022Z,34.50
2019-03-24T04:51:45.691Z,34.15
2019-03-24T04:54:16.414Z,34.15
2019-03-24T04:56:47.213Z,33.05
2019-03-24T04:59:17.966Z,31.05
2019-03-24T05:01:48.571Z,32.88
2019-03-24T05:04:19.496Z,32.30
2019-03-24T05:06:50.303Z,31.25
2019-03-24T05:09:20.899Z,29.50
2019-03-24T05:11:51.981Z,29.67
2019-03-24T05:14:22.718Z,30.75
2019-03-24T05:16:53.368Z,30.48
2019-03-24T05:19:24.922Z,28.12
2019-03-24T05:21:55.411Z,27.32
2019-03-24T05:24:25.912Z,27.10
2019-03-24T05:26:56.787Z,30.55
2019-03-24T05:29:27.490Z,26.62
2019-03-24T05:31:58.121Z,25.48
2019-03-24T05:34:28.922Z,22.45
2019-03-24T05:36:59.594Z,23.40
2019-03-24T05:39:30.314Z,28.12
2019-03-24T05:42:01.310Z,25.45
2019-03-24T05:44:31.986Z,25.68
2019-03-24T05:47:03.024Z,27.07
2019-03-24T05:49:33.900Z,24.35
2019-03-24T05:54:56.233Z,23.55
2019-03-24T05:57:29.786Z,23.60
2019-03-24T06:00:00.504Z,23.18
2019-03-24T06:02:31.159Z,24.27
2019-03-24T06:05:01.991Z,23.75
2019-03-24T06:07:35.287Z,25.77
2019-03-24T06:10:14.597Z,23.67
2019-03-24T06:29:08.218Z,22.27
2019-03-24T06:31:40.449Z,21.97
2019-03-24T06:34:12.902Z,22.05
2019-03-24T06:36:44.007Z,23.30
2019-03-24T06:39:14.862Z,24.87
2019-03-24T06:41:46.009Z,20.88
2019-03-24T06:44:26.280Z,24.00
2019-03-24T06:46:56.928Z,23.70
2019-03-24T06:49:31.893Z,23.22
2019-03-24T06:52:04.652Z,24.05
2019-03-24T06:54:36.932Z,22.73
2019-03-24T06:57:11.753Z,26.93
2019-03-24T06:59:42.842Z,27.93
2019-03-24T07:02:13.509Z,27.52
2019-03-24T07:04:44.083Z,25.20
2019-03-24T07:07:25.808Z,25.08
2019-03-24T07:09:56.615Z,26.93
2019-03-24T07:12:28.016Z,25.92
2019-03-24T07:14:58.578Z,27.75
2019-03-24T07:17:48.262Z,25.72
2019-03-24T07:20:28.302Z,27.60
2019-03-24T07:23:02.880Z,26.45
2019-03-24T07:25:34.250Z,28.83
2019-03-24T07:28:06.432Z,27.05
2019-03-24T08:30:06.575Z,24.50
2019-03-24T08:32:38.538Z,24.15
2019-03-24T08:35:10.795Z,23.67
2019-03-24T08:37:51.562Z,24.40
2019-03-24T08:40:22.789Z,27.37
2019-03-24T08:42:55.104Z,25.45
2019-03-24T08:45:30.885Z,23.32
2019-03-24T08:48:02.152Z,25.30
2019-03-24T08:50:33.587Z,23.22
2019-03-24T08:53:07.616Z,23.20
2019-03-24T08:55:42.141Z,22.02
2019-03-24T08:58:14.020Z,22.43
2019-03-24T09:00:52.089Z,21.95
2019-03-24T09:03:29.105Z,23.83
2019-03-24T09:11:34.835Z,21.45
2019-03-24T09:14:10.590Z,24.02
2019-03-24T09:16:45.472Z,22.05
2019-03-24T09:19:21.908Z,22.32
2019-03-24T09:21:56.551Z,22.52
2019-03-24T09:24:47.792Z,22.83
2019-03-24T09:27:19.302Z,23.10
2019-03-24T09:29:54.500Z,22.40
2019-03-24T09:32:26.928Z,21.75
2019-03-24T09:35:00.625Z,22.85
2019-03-24T09:40:44.614Z,22.17
2019-03-24T09:43:21.645Z,22.55
2019-03-24T09:48:44.889Z,21.90
2019-03-24T09:54:07.920Z,23.22
2019-03-24T09:56:41.488Z,23.18
2019-03-24T09:59:15.170Z,23.40
2019-03-24T10:01:55.771Z,25.23
2019-03-24T10:04:26.831Z,22.35
2019-03-24T10:06:57.927Z,23.32
2019-03-24T10:09:28.569Z,24.18
2019-03-24T10:11:59.517Z,24.20
2019-03-24T10:14:31.054Z,23.60
2019-03-24T10:17:05.588Z,22.60
2019-03-24T10:19:45.523Z,22.25
2019-03-24T10:22:13.980Z,22.37
2019-03-24T10:29:20.051Z,21.02
2019-03-24T13:47:06.688Z,36.00
2019-03-24T13:49:37.470Z,34.23
2019-03-24T13:52:07.880Z,31.42
2019-03-24T13:54:39.924Z,31.30
2019-03-24T13:57:10.915Z,33.05
2019-03-24T13:59:41.744Z,32.42
2019-03-24T14:02:12.644Z,34.67
2019-03-24T14:04:43.241Z,35.15
2019-03-24T14:07:13.950Z,36.38
2019-03-24T14:09:44.845Z,38.42
2019-03-24T14:12:15.585Z,40.48
2019-03-24T14:14:56.149Z,42.45
2019-03-24T14:17:26.919Z,40.98
2019-03-24T14:19:57.657Z,39.42
2019-03-24T14:22:28.558Z,37.78
2019-03-24T14:25:08.258Z,37.88
2019-03-24T14:27:39.060Z,40.48
2019-03-24T14:30:10.332Z,36.65
2019-03-24T14:32:41.064Z,34.85
2019-03-24T14:35:33.872Z,34.98
2019-03-24T14:38:04.614Z,32.00
2019-03-24T14:40:35.391Z,30.77
2019-03-24T14:43:35.714Z,30.57
2019-03-24T14:49:11.552Z,27.87
2019-03-24T14:51:42.227Z,28.02
2019-03-24T14:54:14.158Z,27.62
2019-03-24T14:56:45.240Z,27.52
2019-03-24T14:59:16.036Z,27.48
2019-03-24T15:01:46.812Z,28.92
2019-03-24T15:04:17.704Z,28.23
2019-03-24T15:06:48.484Z,27.52
2019-03-24T15:09:19.227Z,29.85
2019-03-24T15:11:50.200Z,25.68
2019-03-24T15:14:21.180Z,24.95
2019-03-24T15:16:52.148Z,24.87
2019-03-24T15:19:23.042Z,24.35
2019-03-24T15:21:53.835Z,27.35
2019-03-24T15:24:24.556Z,24.30
2019-03-24T15:26:55.462Z,24.87
2019-03-24T15:29:26.235Z,25.62
2019-03-24T15:31:56.929Z,25.08
2019-03-24T15:34:27.873Z,24.15
2019-03-24T15:36:58.862Z,24.02
2019-03-24T15:39:29.724Z,26.30
2019-03-24T15:42:01.049Z,25.00
2019-03-24T15:44:31.879Z,26.85
2019-03-24T15:47:02.914Z,42.93
2019-03-24T15:50:28.349Z,43.00
2019-03-24T16:13:13.064Z,25.60
2019-03-24T16:15:45.050Z,25.57
2019-03-24T16:18:15.826Z,28.07
2019-03-24T16:20:46.707Z,25.35
2019-03-24T16:23:17.608Z,28.50
2019-03-24T16:25:48.375Z,25.82
2019-03-24T16:28:19.114Z,26.65
2019-03-24T16:30:50.014Z,28.27
2019-03-24T16:33:20.790Z,26.90
2019-03-24T16:35:51.520Z,26.17
2019-03-24T16:38:22.668Z,24.98
2019-03-24T16:40:53.473Z,27.87
2019-03-24T16:43:24.506Z,27.32
2019-03-24T16:45:55.282Z,26.65
2019-03-24T16:48:36.360Z,26.82
2019-03-24T16:50:59.158Z,26.57
2019-03-24T16:53:29.906Z,27.70
2019-03-24T16:56:00.644Z,32.58
2019-03-24T16:58:31.789Z,29.25
2019-03-24T17:01:02.566Z,27.58
2019-03-24T17:03:33.391Z,31.37
2019-03-24T17:06:04.307Z,27.45
2019-03-24T17:08:35.074Z,31.82
2019-03-24T17:11:05.819Z,28.42
2019-03-24T17:13:36.716Z,29.00
2019-03-24T17:16:07.504Z,28.70
2019-03-24T17:18:38.290Z,29.35
2019-03-24T17:21:09.469Z,28.57
2019-03-24T17:23:40.307Z,29.05
2019-03-24T17:26:11.054Z,28.65
2019-03-24T17:28:42.045Z,29.48
2019-03-24T17:31:12.820Z,28.42
2019-03-24T17:33:43.556Z,29.77
2019-03-24T17:36:14.460Z,29.07
2019-03-24T17:38:45.236Z,35.03
2019-03-24T17:41:15.926Z,30.62
2019-03-24T17:43:46.879Z,29.65
2019-03-24T17:46:19.453Z,31.87
2019-03-24T17:48:49.812Z,29.67
2019-03-24T17:51:21.022Z,30.05
2019-03-24T17:53:52.090Z,30.17
2019-03-24T17:56:22.848Z,30.85
2019-03-24T17:58:53.844Z,28.83
2019-03-24T18:01:24.615Z,28.92
2019-03-24T18:03:55.354Z,30.32
2019-03-24T18:06:26.254Z,28.65
2019-03-24T18:08:57.029Z,29.90
2019-03-24T18:11:27.761Z,29.65
2019-03-24T18:13:58.666Z,29.65
2019-03-24T18:16:29.432Z,31.25
2019-03-24T18:19:00.135Z,29.80
2019-03-24T18:21:31.319Z,27.80
2019-03-24T18:24:02.165Z,27.95
2019-03-24T18:26:32.988Z,29.18
2019-03-24T18:29:03.894Z,27.40
2019-03-24T18:31:34.670Z,26.68
2019-03-24T18:34:05.414Z,25.75
2019-03-24T18:36:36.312Z,24.25
2019-03-24T18:39:08.970Z,23.18
2019-03-24T18:41:39.937Z,23.55
2019-03-24T18:44:10.818Z,23.00
2019-03-24T18:46:41.706Z,23.40
2019-03-24T18:49:12.582Z,23.20
2019-03-24T18:51:43.586Z,22.87
2019-03-24T18:54:14.675Z,26.93
2019-03-24T18:56:45.509Z,23.40
2019-03-24T18:59:16.242Z,22.73
2019-03-24T19:01:52.988Z,22.02
2019-03-24T19:04:23.719Z,23.00
2019-03-24T19:06:54.592Z,22.42
2019-03-24T19:09:25.619Z,22.25
2019-03-24T19:11:56.388Z,21.33
2019-03-24T19:14:27.117Z,21.87
2019-03-24T19:16:58.115Z,21.15
2019-03-24T19:19:28.883Z,20.70
2019-03-24T19:21:59.632Z,20.43
2019-03-24T19:24:30.466Z,21.90
2019-03-24T19:27:01.193Z,21.27
2019-03-24T19:29:31.936Z,22.20
2019-03-24T19:32:02.772Z,21.93
2019-03-24T19:34:33.706Z,19.40
2019-03-24T19:37:04.754Z,20.30
2019-03-24T19:39:35.695Z,19.48
2019-03-24T19:42:06.426Z,19.00
2019-03-24T19:44:37.171Z,20.45
2019-03-24T19:47:08.106Z,18.73
2019-03-24T19:49:38.835Z,19.37
2019-03-24T19:52:11.579Z,18.20
2019-03-24T19:54:42.560Z,19.60
2019-03-24T19:57:13.685Z,18.75
2019-03-24T19:59:44.550Z,19.17
2019-03-24T20:02:15.279Z,20.77
2019-03-24T20:04:46.115Z,18.23
2019-03-24T20:07:17.052Z,17.85
2019-03-24T20:09:47.792Z,18.67
2019-03-24T20:12:18.533Z,18.27
2019-03-24T20:14:49.432Z,16.73
2019-03-24T20:17:20.206Z,18.12
2019-03-24T20:19:50.939Z,20.75
2019-03-24T20:22:21.942Z,17.17
2019-03-24T20:24:52.819Z,17.25
2019-03-24T20:27:25.795Z,17.45
2019-03-24T20:29:55.849Z,30.55
2019-03-24T20:32:26.666Z,32.17
2019-03-24T20:34:57.399Z,32.48
2019-03-24T20:37:28.255Z,32.70
2019-03-24T20:39:58.982Z,32.78
2019-03-24T20:42:29.708Z,31.62
2019-03-24T20:45:00.563Z,31.35
2019-03-24T20:47:31.292Z,29.27
2019-03-24T20:50:03.748Z,29.23
2019-03-24T20:52:35.831Z,29.80
2019-03-24T20:55:10.077Z,29.85
2019-03-24T20:57:41.191Z,28.15
2019-03-24T21:00:13.038Z,30.32
2019-03-24T21:02:43.905Z,30.52
2019-03-24T21:05:14.828Z,30.35
2019-03-24T21:07:45.626Z,34.03
2019-03-24T21:10:16.434Z,30.85
2019-03-24T21:12:47.393Z,30.02
2019-03-24T21:15:18.187Z,29.20
2019-03-24T21:17:48.986Z,27.48
2019-03-24T21:20:19.767Z,29.25
2019-03-24T21:23:09.323Z,31.87
2019-03-24T21:25:46.007Z,32.93
2019-03-24T21:28:16.922Z,37.17
2019-03-24T21:30:47.643Z,36.17
2019-03-24T21:33:18.424Z,35.58
2019-03-24T21:35:49.220Z,34.25
2019-03-24T21:38:19.991Z,31.15
2019-03-24T21:40:50.828Z,32.85
2019-03-24T21:43:21.672Z,32.73
2019-03-24T21:45:52.402Z,28.80
2019-03-24T21:48:23.239Z,30.08
2019-03-24T21:50:54.192Z,28.45
2019-03-24T21:53:26.858Z,26.97
2019-03-24T21:55:57.595Z,31.90
2019-03-24T21:58:28.435Z,27.80
2019-03-24T22:00:59.176Z,27.62
2019-03-24T22:03:30.286Z,30.02
2019-03-24T22:06:01.357Z,30.57
2019-03-24T22:08:32.195Z,33.42
2019-03-24T22:11:02.933Z,32.25
2019-03-24T22:13:33.852Z,33.13
2019-03-24T22:16:04.716Z,29.45
2019-03-24T22:18:35.450Z,32.10
2019-03-24T22:21:06.358Z,30.37
2019-03-24T22:23:37.122Z,31.23
2019-03-24T22:26:07.854Z,30.10
2019-03-24T22:28:38.754Z,32.10
2019-03-24T22:31:09.737Z,28.65
2019-03-24T22:33:40.572Z,29.85
2019-03-24T22:36:11.474Z,29.35
2019-03-24T22:38:42.254Z,31.68
2019-03-24T22:41:12.974Z,28.60
2019-03-24T22:43:43.999Z,31.25
2019-03-24T22:46:14.864Z,28.23
2019-03-24T22:48:45.599Z,29.90
2019-03-24T22:51:16.505Z,30.55
2019-03-24T22:53:48.950Z,28.55
2019-03-24T22:56:19.715Z,29.55
2019-03-24T22:58:50.624Z,32.08
2019-03-24T23:05:03.090Z,29.72
2019-03-24T23:07:33.866Z,28.62
2019-03-24T23:10:04.662Z,29.12
2019-03-24T23:12:35.616Z,29.75
2019-03-24T23:15:08.763Z,29.98
2019-03-24T23:17:39.802Z,31.17
2019-03-24T23:20:10.613Z,29.92
2019-03-24T23:22:41.352Z,28.98
2019-03-24T23:56:27.368Z,47.73
2019-03-24T23:58:58.111Z,48.42
